createdAt,value
2023-01-20T00:01:48.855Z,19.35
2023-01-20T00:04:19.246Z,17.40
2023-01-20T00:06:46.562Z,17.85
2023-01-20T00:09:17.694Z,17.80
2023-01-20T00:11:44.930Z,20.35
2023-01-20T00:14:12.229Z,19.60
2023-01-20T00:16:39.714Z,19.38
2023-01-20T00:19:06.999Z,17.08
2023-01-20T00:21:35.069Z,17.92
2023-01-20T00:24:02.328Z,16.42
2023-01-20T00:26:29.608Z,19.60
2023-01-20T00:29:00.324Z,18.33
2023-01-20T00:31:28.607Z,19.17
2023-01-20T00:33:56.932Z,19.25
2023-01-20T00:36:24.687Z,18.63
2023-01-20T00:38:52.023Z,19.52
2023-01-20T00:41:19.391Z,20.63
2023-01-20T00:43:46.767Z,19.85
2023-01-20T00:46:14.217Z,18.25
2023-01-20T00:48:41.812Z,19.25
2023-01-20T00:51:09.751Z,18.85
2023-01-20T00:53:37.315Z,20.17
2023-01-20T00:56:04.700Z,15.68
2023-01-20T00:58:31.860Z,18.77
2023-01-20T01:00:59.289Z,19.05
2023-01-20T01:03:28.170Z,17.13
2023-01-20T01:05:55.758Z,16.50
2023-01-20T01:08:22.883Z,18.45
2023-01-20T01:10:50.052Z,17.17
2023-01-20T01:13:17.209Z,16.45
2023-01-20T01:15:49.494Z,19.63
2023-01-20T01:18:16.663Z,16.77
2023-01-20T01:20:44.852Z,20.27
2023-01-20T01:23:12.763Z,20.10
2023-01-20T01:25:39.907Z,19.13
2023-01-20T01:28:07.082Z,18.67
2023-01-20T01:30:34.597Z,19.88
2023-01-20T01:33:01.808Z,17.75
2023-01-20T01:35:28.953Z,19.35
2023-01-20T01:37:56.107Z,18.55
2023-01-20T01:40:23.263Z,19.48
2023-01-20T01:42:50.429Z,18.15
2023-01-20T01:45:22.175Z,17.40
2023-01-20T01:47:55.505Z,18.25
2023-01-20T01:50:26.115Z,19.05
2023-01-20T01:52:54.367Z,19.75
2023-01-20T01:55:23.249Z,18.42
2023-01-20T01:57:50.814Z,18.15
2023-01-20T02:00:18.118Z,19.50
2023-01-20T02:02:46.312Z,19.75
2023-01-20T02:05:15.215Z,18.13
2023-01-20T02:07:44.900Z,18.95
2023-01-20T02:10:12.272Z,21.95
2023-01-20T02:12:39.832Z,18.75
2023-01-20T02:15:07.723Z,19.35
2023-01-20T02:17:44.123Z,20.15
2023-01-20T02:20:11.448Z,18.23
2023-01-20T02:22:38.691Z,17.80
2023-01-20T02:25:24.557Z,16.23
2023-01-20T02:27:54.533Z,14.32
2023-01-20T02:30:27.668Z,14.18
2023-01-20T02:33:07.251Z,14.52
2023-01-20T02:35:39.833Z,13.45
2023-01-20T02:38:07.015Z,16.15
2023-01-20T02:40:37.248Z,15.55
2023-01-20T02:43:09.773Z,17.13
2023-01-20T02:45:37.019Z,16.00
2023-01-20T02:48:19.725Z,18.55
2023-01-20T02:50:51.134Z,15.77
2023-01-20T02:53:19.401Z,15.10
2023-01-20T02:55:47.976Z,15.35
2023-01-20T02:58:20.495Z,14.80
2023-01-20T03:00:52.674Z,13.68
2023-01-20T03:03:22.294Z,14.43
2023-01-20T03:05:52.665Z,15.55
2023-01-20T03:08:20.758Z,16.02
2023-01-20T03:10:48.679Z,16.75
2023-01-20T03:13:39.176Z,18.23
2023-01-20T03:16:11.278Z,19.23
2023-01-20T03:18:38.773Z,18.30
2023-01-20T03:21:06.585Z,20.38
2023-01-20T03:23:38.232Z,18.90
2023-01-20T03:26:07.771Z,20.58
2023-01-20T03:28:37.489Z,21.05
2023-01-20T03:31:24.743Z,21.48
2023-01-20T03:33:53.964Z,21.90
2023-01-20T03:36:22.476Z,19.35
2023-01-20T03:38:50.170Z,21.85
2023-01-20T03:41:31.035Z,22.92
2023-01-20T03:44:03.839Z,20.33
2023-01-20T03:46:42.451Z,22.48
2023-01-20T03:49:21.856Z,22.83
2023-01-20T03:51:52.187Z,21.92
2023-01-20T03:54:23.377Z,22.65
2023-01-20T03:56:55.722Z,21.80
2023-01-20T03:59:23.501Z,25.97
2023-01-20T04:01:50.881Z,23.27
2023-01-20T04:04:19.502Z,24.35
2023-01-20T04:06:48.272Z,22.17
2023-01-20T04:09:18.329Z,24.05
2023-01-20T04:11:45.511Z,23.58
2023-01-20T04:14:12.765Z,23.90
2023-01-20T04:16:39.983Z,25.75
2023-01-20T04:19:07.161Z,26.08
2023-01-20T04:21:44.439Z,24.67
2023-01-20T04:24:31.821Z,26.83
2023-01-20T04:26:58.980Z,27.70
2023-01-20T04:29:26.214Z,25.02
2023-01-20T04:31:59.147Z,26.83
2023-01-20T04:34:26.400Z,26.33
2023-01-20T04:36:53.641Z,27.23
2023-01-20T04:39:20.816Z,29.13
2023-01-20T04:41:48.565Z,25.75
2023-01-20T04:44:15.799Z,27.55
2023-01-20T04:46:43.069Z,27.88
2023-01-20T04:49:11.121Z,27.27
2023-01-20T04:51:38.326Z,26.08
2023-01-20T04:54:05.923Z,27.15
2023-01-20T04:56:33.243Z,28.65
2023-01-20T04:59:00.455Z,29.05
2023-01-20T05:01:27.827Z,26.67
2023-01-20T05:03:55.116Z,27.77
2023-01-20T05:06:22.339Z,28.67
2023-01-20T05:08:49.535Z,31.08
2023-01-20T05:11:16.751Z,29.80
2023-01-20T05:13:44.057Z,29.92
2023-01-20T05:16:11.699Z,28.98
2023-01-20T05:18:39.017Z,34.60
2023-01-20T05:21:08.624Z,31.42
2023-01-20T05:23:36.180Z,33.13
2023-01-20T05:26:03.320Z,30.17
2023-01-20T05:28:30.601Z,34.33
2023-01-20T05:30:57.834Z,33.67
2023-01-20T05:33:25.082Z,34.20
2023-01-20T05:35:53.321Z,44.65
2023-01-20T05:38:22.277Z,33.95
2023-01-20T05:40:49.393Z,35.70
2023-01-20T05:43:16.562Z,37.83
2023-01-20T05:45:43.769Z,48.08
2023-01-20T05:48:10.978Z,46.10
2023-01-20T05:50:38.151Z,38.08
2023-01-20T05:53:05.294Z,44.45
2023-01-20T05:55:32.410Z,47.83
2023-01-20T05:58:02.562Z,47.67
2023-01-20T06:00:29.877Z,42.90
2023-01-20T06:02:57.262Z,39.22
2023-01-20T06:05:24.454Z,40.45
2023-01-20T06:07:51.685Z,37.83
2023-01-20T06:10:18.895Z,42.28
2023-01-20T06:12:52.094Z,39.72
2023-01-20T06:17:46.327Z,38.60
2023-01-20T06:20:13.507Z,34.85
2023-01-20T06:22:40.678Z,33.72
2023-01-20T06:25:08.053Z,29.85
2023-01-20T06:27:35.276Z,30.33
2023-01-20T06:30:02.418Z,30.30
2023-01-20T06:32:29.603Z,28.67
2023-01-20T06:34:56.796Z,31.63
2023-01-20T06:37:23.978Z,29.92
2023-01-20T06:39:51.167Z,30.77
2023-01-20T06:42:18.316Z,31.40
2023-01-20T06:44:45.492Z,29.88
2023-01-20T06:47:12.645Z,31.60
2023-01-20T06:49:39.885Z,28.63
2023-01-20T06:52:07.273Z,32.40
2023-01-20T06:54:34.514Z,36.20
2023-01-20T06:57:01.733Z,37.42
2023-01-20T06:59:28.989Z,29.65
2023-01-20T07:01:56.172Z,34.88
2023-01-20T07:04:23.432Z,29.15
2023-01-20T07:06:50.534Z,30.02
2023-01-20T07:09:17.752Z,28.48
2023-01-20T07:11:45.011Z,29.77
2023-01-20T07:14:12.250Z,28.50
2023-01-20T07:16:39.726Z,25.10
2023-01-20T07:19:06.991Z,25.55
2023-01-20T07:21:34.223Z,27.70
2023-01-20T07:24:02.354Z,23.10
2023-01-20T07:26:30.268Z,23.50
2023-01-20T07:29:17.774Z,26.02
2023-01-20T07:31:47.329Z,25.33
2023-01-20T07:34:14.510Z,27.42
2023-01-20T07:36:41.696Z,30.48
2023-01-20T07:39:10.360Z,27.73
2023-01-20T07:41:37.890Z,30.92
2023-01-20T07:44:05.259Z,33.75
2023-01-20T07:46:32.732Z,28.80
2023-01-20T07:48:59.911Z,27.13
2023-01-20T07:51:27.121Z,28.10
2023-01-20T07:53:54.409Z,27.20
2023-01-20T07:56:26.216Z,33.80
2023-01-20T07:58:54.263Z,29.88
2023-01-20T08:01:26.102Z,28.10
2023-01-20T08:03:53.750Z,28.38
2023-01-20T08:06:23.130Z,29.80
2023-01-20T08:08:50.594Z,28.90
2023-01-20T08:11:18.507Z,27.73
2023-01-20T08:13:46.098Z,31.65
2023-01-20T08:16:14.266Z,26.67
2023-01-20T08:18:53.613Z,28.40
2023-01-20T08:21:25.081Z,27.40
2023-01-20T08:23:52.552Z,24.60
2023-01-20T08:26:19.794Z,26.60
2023-01-20T08:28:47.307Z,27.73
2023-01-20T08:31:15.665Z,27.33
2023-01-20T08:33:43.445Z,24.83
2023-01-20T08:36:12.243Z,26.95
2023-01-20T08:38:39.996Z,26.38
2023-01-20T08:41:17.827Z,25.55
2023-01-20T08:43:45.067Z,24.10
2023-01-20T08:46:13.604Z,27.13
2023-01-20T08:48:41.661Z,24.23
2023-01-20T08:51:10.275Z,24.92
2023-01-20T08:53:37.636Z,26.60
2023-01-20T08:56:05.338Z,24.38
2023-01-20T08:58:32.933Z,27.50
2023-01-20T09:01:00.629Z,29.05
2023-01-20T09:03:27.872Z,29.38
2023-01-20T09:05:55.155Z,29.77
2023-01-20T09:08:27.063Z,26.30
2023-01-20T09:10:54.414Z,24.80
2023-01-20T09:13:21.870Z,24.45
2023-01-20T09:15:52.952Z,24.85
2023-01-20T09:18:20.174Z,22.55
2023-01-20T09:20:47.358Z,23.67
2023-01-20T09:23:14.743Z,24.80
2023-01-20T09:25:42.005Z,25.55
2023-01-20T09:28:09.210Z,23.80
2023-01-20T09:30:44.331Z,23.98
2023-01-20T09:33:11.976Z,23.35
2023-01-20T09:35:39.555Z,21.45
2023-01-20T09:38:25.364Z,23.17
2023-01-20T09:41:13.842Z,24.27
2023-01-20T09:43:56.204Z,22.70
2023-01-20T09:46:23.483Z,19.48
2023-01-20T09:49:09.296Z,22.73
2023-01-20T09:52:06.179Z,21.88
2023-01-20T09:54:42.846Z,19.95
2023-01-20T09:57:11.565Z,20.77
2023-01-20T09:59:41.378Z,17.80
2023-01-20T10:02:16.253Z,20.95
2023-01-20T10:04:47.031Z,21.85
2023-01-20T10:07:20.652Z,20.65
2023-01-20T10:09:57.548Z,20.13
2023-01-20T10:12:35.832Z,20.60
2023-01-20T10:15:21.451Z,20.30
2023-01-20T10:17:48.601Z,19.20
2023-01-20T10:20:36.077Z,20.98
2023-01-20T10:23:14.790Z,17.08
2023-01-20T10:25:46.147Z,20.55
2023-01-20T10:28:15.927Z,21.40
2023-01-20T10:30:44.566Z,18.10
2023-01-20T10:33:16.181Z,20.70
2023-01-20T10:35:45.354Z,17.58
2023-01-20T10:38:38.758Z,19.15
2023-01-20T10:41:17.134Z,16.65
2023-01-20T10:43:45.611Z,18.83
2023-01-20T10:46:21.905Z,15.18
2023-01-20T10:49:25.641Z,13.52
2023-01-20T10:52:19.003Z,14.15
2023-01-20T10:55:02.237Z,16.25
2023-01-20T10:57:29.643Z,16.83
2023-01-20T11:00:00.025Z,13.75
2023-01-20T11:02:32.270Z,15.38
2023-01-20T11:04:59.880Z,14.87
2023-01-20T11:07:28.262Z,16.42
2023-01-20T11:09:55.524Z,15.70
2023-01-20T11:12:31.234Z,16.02
2023-01-20T11:15:00.521Z,15.15
2023-01-20T11:17:27.822Z,13.32
2023-01-20T11:19:56.795Z,12.82
2023-01-20T11:22:30.179Z,12.02
2023-01-20T11:25:03.143Z,11.77
2023-01-20T11:27:44.757Z,10.98
2023-01-20T11:30:29.228Z,11.98
2023-01-20T11:33:15.052Z,11.75
2023-01-20T11:35:57.086Z,12.25
2023-01-20T11:38:25.716Z,10.65
2023-01-20T11:40:53.977Z,11.43
2023-01-20T11:43:32.081Z,11.27
2023-01-20T11:46:13.044Z,10.75
2023-01-20T11:48:40.852Z,12.70
2023-01-20T11:51:19.204Z,10.48
2023-01-20T11:53:47.114Z,10.45
2023-01-20T11:56:18.270Z,8.70
2023-01-20T11:58:52.551Z,9.00
2023-01-20T12:01:27.506Z,11.18
2023-01-20T12:04:33.360Z,9.60
2023-01-20T12:07:06.589Z,9.57
2023-01-20T12:12:03.774Z,9.20
2023-01-20T12:14:42.897Z,9.93
2023-01-20T12:17:28.810Z,10.50
2023-01-20T12:20:02.151Z,10.52
2023-01-20T12:22:49.588Z,9.43
2023-01-20T12:25:20.011Z,9.65
2023-01-20T12:27:52.523Z,10.68
2023-01-20T12:30:38.502Z,9.52
2023-01-20T12:33:06.712Z,9.88
2023-01-20T12:35:37.906Z,9.20
2023-01-20T12:38:08.571Z,9.75
2023-01-20T12:40:41.753Z,8.23
2023-01-20T12:45:42.275Z,7.68
2023-01-20T12:48:26.483Z,8.85
2023-01-20T12:51:11.907Z,8.43
2023-01-20T12:53:56.293Z,9.40
2023-01-20T12:56:35.693Z,9.63
2023-01-20T12:59:06.015Z,7.93
2023-01-20T13:01:47.936Z,8.85
2023-01-20T13:04:33.949Z,8.07
2023-01-20T13:07:15.042Z,8.18
2023-01-20T13:09:49.819Z,9.73
2023-01-20T13:12:26.168Z,9.85
2023-01-20T13:14:59.382Z,8.90
2023-01-20T13:19:57.518Z,7.78
2023-01-20T13:22:26.203Z,9.52
2023-01-20T13:24:54.534Z,8.93
2023-01-20T13:27:27.091Z,8.63
2023-01-20T13:29:58.688Z,9.45
2023-01-20T13:32:33.835Z,7.70
2023-01-20T13:35:02.455Z,9.68
2023-01-20T13:37:30.778Z,9.15
2023-01-20T13:40:00.399Z,8.73
2023-01-20T13:42:36.854Z,8.10
2023-01-20T13:45:10.275Z,8.30
2023-01-20T13:47:52.612Z,7.85
2023-01-20T13:50:23.834Z,9.25
2023-01-20T13:52:51.075Z,7.82
2023-01-20T13:55:31.208Z,11.13
2023-01-20T13:57:58.467Z,8.82
2023-01-20T14:00:25.703Z,9.45
2023-01-20T14:02:53.162Z,9.93
2023-01-20T14:05:24.994Z,9.10
2023-01-20T14:07:52.392Z,9.73
2023-01-20T14:10:20.354Z,9.13
2023-01-20T14:12:47.517Z,9.20
2023-01-20T14:15:25.301Z,10.05
2023-01-20T14:17:56.411Z,8.70
2023-01-20T14:20:24.684Z,8.43
2023-01-20T14:22:52.069Z,9.07
2023-01-20T14:25:26.631Z,8.52
2023-01-20T14:27:53.919Z,8.15
2023-01-20T14:30:21.124Z,7.68
2023-01-20T14:32:48.420Z,8.45
2023-01-20T14:35:23.191Z,8.50
2023-01-20T14:37:51.558Z,8.63
2023-01-20T14:40:31.918Z,8.60
2023-01-20T14:43:00.492Z,7.78
2023-01-20T14:45:29.361Z,7.60
2023-01-20T14:47:58.314Z,7.22
2023-01-20T14:50:25.953Z,8.05
2023-01-20T14:52:53.266Z,7.93
2023-01-20T14:55:49.120Z,7.47
2023-01-20T14:58:17.000Z,8.88
2023-01-20T15:00:52.470Z,9.77
2023-01-20T15:03:21.416Z,9.13
2023-01-20T15:05:54.764Z,9.43
2023-01-20T15:08:26.067Z,10.68
2023-01-20T15:11:12.853Z,10.50
2023-01-20T15:13:40.599Z,8.40
2023-01-20T15:16:14.118Z,8.25
2023-01-20T15:18:41.307Z,9.45
2023-01-20T15:21:17.204Z,8.32
2023-01-20T15:23:51.301Z,7.45
2023-01-20T15:26:29.498Z,8.15
2023-01-20T15:28:57.339Z,8.35
2023-01-20T15:31:25.223Z,8.95
2023-01-20T15:33:52.505Z,7.07
2023-01-20T15:36:19.722Z,7.68
2023-01-20T15:38:47.168Z,8.15
2023-01-20T15:41:14.820Z,8.68
2023-01-20T15:43:42.560Z,7.93
2023-01-20T15:46:13.486Z,7.95
2023-01-20T15:48:40.768Z,8.40
2023-01-20T15:51:12.840Z,9.43
2023-01-20T15:53:40.090Z,10.00
2023-01-20T15:56:07.488Z,8.45
2023-01-20T15:58:35.310Z,9.93
2023-01-20T16:01:02.473Z,10.20
2023-01-20T16:03:32.043Z,11.18
2023-01-20T16:05:59.282Z,11.00
2023-01-20T16:08:32.672Z,9.77
2023-01-20T16:11:02.955Z,9.48
2023-01-20T16:13:30.400Z,10.70
2023-01-20T16:15:57.947Z,12.45
2023-01-20T16:18:25.242Z,10.95
2023-01-20T16:20:52.772Z,13.57
2023-01-20T16:23:19.963Z,12.82
2023-01-20T16:25:47.166Z,13.85
2023-01-20T16:28:19.836Z,14.90
2023-01-20T16:30:47.024Z,12.40
2023-01-20T16:33:20.146Z,12.85
2023-01-20T16:35:47.455Z,17.52
2023-01-20T16:38:15.666Z,19.48
2023-01-20T16:40:45.997Z,15.52
2023-01-20T16:43:13.206Z,16.50
2023-01-20T16:45:40.393Z,14.70
2023-01-20T16:48:09.240Z,14.88
2023-01-20T16:50:37.153Z,15.23
2023-01-20T16:53:04.523Z,16.35
2023-01-20T16:55:31.706Z,18.27
2023-01-20T16:57:58.918Z,25.00
2023-01-20T17:00:26.143Z,23.42
2023-01-20T17:02:54.095Z,22.83
2023-01-20T17:05:25.792Z,27.65
2023-01-20T17:07:54.086Z,27.45
2023-01-20T17:10:21.654Z,25.38
2023-01-20T17:12:49.190Z,19.10
2023-01-20T17:15:16.486Z,19.33
2023-01-20T17:17:43.953Z,19.23
2023-01-20T17:20:11.433Z,20.90
2023-01-20T17:22:39.474Z,19.40
2023-01-20T17:25:07.968Z,21.73
2023-01-20T17:27:35.552Z,21.15
2023-01-20T17:30:03.296Z,19.98
2023-01-20T17:32:30.453Z,19.50
2023-01-20T17:34:57.667Z,19.60
2023-01-20T17:37:24.857Z,18.45
2023-01-20T17:39:53.168Z,18.38
2023-01-20T17:42:20.349Z,18.80
2023-01-20T17:44:47.752Z,16.98
2023-01-20T17:47:14.944Z,19.30
2023-01-20T17:49:42.114Z,18.98
2023-01-20T17:52:09.275Z,17.05
2023-01-20T17:54:36.575Z,17.40
2023-01-20T17:57:06.720Z,15.77
2023-01-20T17:59:33.908Z,20.10
2023-01-20T18:02:01.114Z,25.38
2023-01-20T18:04:29.473Z,25.90
2023-01-20T18:06:56.681Z,25.63
2023-01-20T18:09:23.851Z,22.60
2023-01-20T18:11:51.036Z,21.42
2023-01-20T18:14:19.239Z,21.30
2023-01-20T18:16:47.875Z,20.83
2023-01-20T18:19:15.204Z,20.25
2023-01-20T18:21:43.883Z,19.77
2023-01-20T18:24:11.903Z,20.70
2023-01-20T18:26:40.592Z,24.25
2023-01-20T18:29:09.516Z,19.38
2023-01-20T18:31:36.776Z,19.45
2023-01-20T18:34:08.866Z,21.27
2023-01-20T18:36:37.947Z,21.33
2023-01-20T18:39:06.861Z,20.17
2023-01-20T18:41:36.600Z,19.80
2023-01-20T18:44:05.511Z,20.48
2023-01-20T18:46:32.842Z,23.77
2023-01-20T18:49:00.523Z,23.85
2023-01-20T18:51:28.849Z,22.92
2023-01-20T18:53:57.744Z,23.52
2023-01-20T18:56:25.358Z,20.92
2023-01-20T18:58:53.475Z,20.25
2023-01-20T19:01:22.517Z,21.27
2023-01-20T19:03:50.515Z,22.90
2023-01-20T19:06:19.030Z,22.40
2023-01-20T19:08:48.132Z,23.48
2023-01-20T19:11:17.703Z,21.92
2023-01-20T19:13:45.695Z,24.80
2023-01-20T19:16:13.334Z,23.48
2023-01-20T19:18:41.117Z,24.45
2023-01-20T19:21:09.607Z,24.17
2023-01-20T19:23:37.511Z,23.58
2023-01-20T19:26:05.879Z,21.92
2023-01-20T19:28:33.328Z,23.85
2023-01-20T19:31:14.154Z,22.75
2023-01-20T19:33:41.961Z,20.70
2023-01-20T19:36:12.070Z,22.67
2023-01-20T19:38:39.319Z,23.70
2023-01-20T19:41:13.954Z,23.15
2023-01-20T19:43:41.272Z,21.23
2023-01-20T19:46:09.651Z,23.50
2023-01-20T19:48:36.947Z,24.98
2023-01-20T19:51:05.062Z,24.00
2023-01-20T19:53:33.822Z,26.27
2023-01-20T19:56:10.000Z,24.60
2023-01-20T19:58:39.630Z,24.63
2023-01-20T20:01:07.801Z,21.17
2023-01-20T20:03:34.942Z,27.33
2023-01-20T20:06:02.646Z,21.95
2023-01-20T20:08:29.919Z,22.80
2023-01-20T20:10:57.164Z,22.05
2023-01-20T20:13:24.360Z,24.90
2023-01-20T20:15:59.973Z,26.38
2023-01-20T20:18:27.176Z,27.92
2023-01-20T20:20:54.370Z,37.03
2023-01-20T20:23:21.816Z,32.75
2023-01-20T20:25:56.221Z,28.30
2023-01-20T20:28:24.216Z,27.45
2023-01-20T20:30:51.926Z,30.70
2023-01-20T20:33:19.270Z,27.35
2023-01-20T20:35:46.510Z,31.33
2023-01-20T20:38:13.709Z,29.75
2023-01-20T20:40:40.908Z,30.45
2023-01-20T20:43:09.323Z,29.05
2023-01-20T20:45:36.527Z,27.13
2023-01-20T20:48:04.713Z,27.98
2023-01-20T20:50:31.984Z,27.65
2023-01-20T20:52:59.234Z,27.73
2023-01-20T20:55:26.469Z,25.90
2023-01-20T20:57:53.729Z,27.83
2023-01-20T21:00:23.552Z,27.67
2023-01-20T21:02:51.124Z,29.05
2023-01-20T21:05:19.164Z,28.85
2023-01-20T21:07:46.532Z,28.50
2023-01-20T21:10:16.571Z,26.83
2023-01-20T21:12:44.724Z,30.65
2023-01-20T21:15:12.188Z,30.90
2023-01-20T21:17:39.501Z,30.95
2023-01-20T21:20:07.471Z,25.90
2023-01-20T21:22:35.189Z,25.95
2023-01-20T21:25:02.631Z,26.90
2023-01-20T21:27:32.975Z,25.90
2023-01-20T21:30:00.277Z,25.33
2023-01-20T21:32:27.480Z,25.02
2023-01-20T21:34:55.289Z,24.92
2023-01-20T21:37:22.655Z,23.67
2023-01-20T21:39:49.954Z,26.45
2023-01-20T21:42:17.194Z,26.95
2023-01-20T21:44:44.444Z,26.80
2023-01-20T21:47:11.670Z,22.73
2023-01-20T21:49:57.374Z,24.35
2023-01-20T21:52:42.984Z,26.17
2023-01-20T21:55:19.226Z,28.23
2023-01-20T21:57:50.177Z,28.65
2023-01-20T22:00:18.834Z,32.60
2023-01-20T22:02:46.945Z,30.75
2023-01-20T22:05:14.219Z,27.08
2023-01-20T22:07:41.464Z,33.75
2023-01-20T22:10:09.510Z,26.73
2023-01-20T22:12:37.396Z,32.25
2023-01-20T22:15:05.053Z,30.92
2023-01-20T22:17:34.185Z,31.85
2023-01-20T22:20:01.411Z,32.00
2023-01-20T22:22:28.596Z,34.75
2023-01-20T22:24:55.870Z,25.73
2023-01-20T22:27:23.224Z,32.08
2023-01-20T22:29:51.341Z,31.88
2023-01-20T22:32:18.592Z,39.30
2023-01-20T22:34:45.753Z,31.60
2023-01-20T22:37:13.053Z,61.17
2023-01-20T22:39:40.301Z,30.98
2023-01-20T22:42:08.674Z,39.47
2023-01-20T22:44:35.832Z,38.05
2023-01-20T22:47:05.750Z,28.85
2023-01-20T22:49:32.910Z,30.83
2023-01-20T22:52:00.101Z,31.08
2023-01-20T22:54:27.302Z,37.08
2023-01-20T22:56:54.505Z,28.98
2023-01-20T22:59:22.082Z,32.38
2023-01-20T23:01:49.597Z,33.28
2023-01-20T23:04:16.830Z,30.95
2023-01-20T23:06:44.028Z,28.30
2023-01-20T23:09:12.803Z,26.60
2023-01-20T23:11:42.614Z,34.55
2023-01-20T23:14:13.911Z,30.63
2023-01-20T23:16:42.228Z,33.15
2023-01-20T23:19:10.056Z,43.80
2023-01-20T23:21:37.254Z,33.47
2023-01-20T23:24:04.569Z,32.80
2023-01-20T23:26:32.639Z,32.85
2023-01-20T23:29:00.317Z,35.78
2023-01-20T23:31:33.136Z,42.65
2023-01-20T23:34:00.405Z,36.03
2023-01-20T23:36:28.016Z,34.88
2023-01-20T23:38:55.514Z,28.38
2023-01-20T23:41:23.000Z,31.38
2023-01-20T23:43:50.633Z,36.50
2023-01-20T23:46:18.120Z,34.75
2023-01-20T23:48:46.476Z,32.08
2023-01-20T23:51:13.792Z,29.58
2023-01-20T23:53:41.285Z,30.65
2023-01-20T23:56:11.607Z,34.65
2023-01-20T23:58:39.504Z,33.75
